Time;durP1;ratioP1;P1;durP2;ratioP2;P2;SDS_P1;SDS_P2;PMS_P1;PMS_P2;Temp;Humidity;BMP_temperature;BMP_pressure;BME280_temperature;BME280_humidity;BME280_pressure;Samples;Min_cycle;Max_cycle;Signal;HPM_P1;HPM_P2
2023/03/02 00:02:16;;;;;;;44.17;19.60;;;2.20;78.30;;;;;;5052348;28;20177;-73
2023/03/02 00:04:45;;;;;;;45.70;19.37;;;2.20;78.40;;;;;;5031081;28;20279;-73
2023/03/02 00:07:15;;;;;;;39.23;19.50;;;2.10;78.40;;;;;;5050742;28;20961;-73
2023/03/02 00:09:42;;;;;;;50.53;19.50;;;2.00;78.70;;;;;;5052585;28;20419;-72
2023/03/02 00:12:08;;;;;;;38.90;20.20;;;2.00;78.90;;;;;;5052442;28;20418;-73
2023/03/02 00:14:33;;;;;;;43.83;19.00;;;2.00;79.20;;;;;;5053023;28;20629;-72
2023/03/02 00:16:59;;;;;;;52.20;20.73;;;1.90;79.30;;;;;;5046774;28;20985;-73
2023/03/02 00:19:24;;;;;;;45.60;20.33;;;2.00;79.50;;;;;;5030877;28;20204;-74
2023/03/02 00:21:50;;;;;;;44.53;19.60;;;1.90;79.30;;;;;;5051515;28;20176;-72
2023/03/02 00:24:16;;;;;;;39.80;18.90;;;1.90;79.50;;;;;;5046347;28;20263;-73
2023/03/02 00:26:42;;;;;;;40.53;18.87;;;1.90;79.70;;;;;;5050285;28;20262;-73
2023/03/02 00:29:07;;;;;;;48.50;21.33;;;1.80;79.60;;;;;;5051025;28;20244;-72
2023/03/02 00:31:33;;;;;;;44.63;21.60;;;1.80;79.70;;;;;;5050743;28;20184;-72
2023/03/02 00:33:59;;;;;;;45.43;21.30;;;1.80;79.90;;;;;;5047805;28;20926;-71
2023/03/02 00:36:24;;;;;;;43.67;20.17;;;1.80;80.20;;;;;;5048002;28;20230;-73
2023/03/02 00:38:53;;;;;;;41.83;19.90;;;1.80;80.20;;;;;;5047569;28;20224;-72
2023/03/02 00:41:20;;;;;;;45.45;20.42;;;1.70;80.20;;;;;;5054257;28;20208;-73
2023/03/02 00:43:46;;;;;;;46.85;21.05;;;1.70;80.20;;;;;;5055982;28;20176;-73
2023/03/02 00:46:15;;;;;;;43.92;19.65;;;1.70;80.30;;;;;;5051985;28;20209;-73
2023/03/02 00:48:41;;;;;;;49.85;22.83;;;1.70;80.30;;;;;;5055351;28;20185;-72
2023/03/02 00:51:07;;;;;;;41.55;20.25;;;1.70;80.30;;;;;;5055129;28;20191;-73
2023/03/02 00:53:33;;;;;;;44.97;21.20;;;1.70;80.50;;;;;;5052856;28;20190;-73
2023/03/02 00:56:00;;;;;;;48.47;21.23;;;1.70;80.30;;;;;;5053883;28;20457;-72
2023/03/02 00:58:27;;;;;;;40.75;20.25;;;1.70;80.50;;;;;;5050932;28;20510;-73
2023/03/02 01:00:52;;;;;;;46.03;21.80;;;1.60;80.60;;;;;;5037747;28;20708;-73
2023/03/02 01:03:18;;;;;;;45.70;19.67;;;1.60;80.60;;;;;;5055666;28;20244;-72
2023/03/02 01:05:44;;;;;;;50.03;22.30;;;1.60;80.80;;;;;;5048279;28;20218;-73
2023/03/02 01:08:10;;;;;;;47.63;21.30;;;1.60;80.60;;;;;;5054126;28;20207;-73
2023/03/02 01:10:37;;;;;;;46.83;20.70;;;1.60;80.90;;;;;;5055223;28;20176;-74
2023/03/02 01:13:04;;;;;;;51.50;21.98;;;1.50;80.90;;;;;;5037623;28;20571;-72
2023/03/02 01:15:31;;;;;;;49.30;21.38;;;1.50;81.10;;;;;;5053410;28;20177;-73
2023/03/02 01:17:58;;;;;;;51.30;22.10;;;1.50;81.20;;;;;;5051746;28;20675;-73
2023/03/02 01:20:24;;;;;;;47.58;20.95;;;1.50;81.20;;;;;;5036620;28;20345;-73
2023/03/02 01:22:49;;;;;;;47.13;21.70;;;1.50;81.20;;;;;;5055163;28;20543;-73
2023/03/02 01:25:15;;;;;;;48.90;22.97;;;1.50;81.10;;;;;;5054491;28;20188;-73
2023/03/02 01:27:41;;;;;;;45.43;21.40;;;1.40;81.10;;;;;;5057389;28;20235;-74
2023/03/02 01:30:07;;;;;;;49.20;22.77;;;1.40;81.70;;;;;;5045077;28;20184;-73
2023/03/02 01:32:33;;;;;;;51.58;22.30;;;1.30;81.80;;;;;;5068346;28;20281;-73
2023/03/02 01:34:59;;;;;;;47.77;21.10;;;1.30;81.90;;;;;;5059489;28;20188;-72
2023/03/02 01:37:24;;;;;;;50.80;21.80;;;1.30;81.90;;;;;;5053358;28;20208;-73
2023/03/02 01:39:50;;;;;;;48.27;21.70;;;1.30;81.90;;;;;;5054578;28;20208;-72
2023/03/02 01:45:51;;;;;;;49.13;19.90;;;1.30;82.10;;;;;;5044238;28;20601;-73
2023/03/02 01:48:26;;;;;;;49.47;22.77;;;1.20;81.90;;;;;;5053587;28;20188;-73
2023/03/02 01:50:53;;;;;;;45.55;20.98;;;1.20;82.10;;;;;;5053173;28;20186;-72
2023/03/02 01:53:21;;;;;;;48.72;20.40;;;1.20;82.20;;;;;;5044169;28;20192;-71
2023/03/02 01:55:47;;;;;;;45.90;21.35;;;1.10;82.20;;;;;;5035206;28;20295;-72
2023/03/02 01:58:15;;;;;;;50.00;21.57;;;1.10;82.40;;;;;;5053397;28;20845;-71
2023/03/02 02:00:42;;;;;;;45.45;20.50;;;1.10;82.50;;;;;;5054345;28;20459;-72
2023/03/02 02:03:19;;;;;;;43.88;19.90;;;1.10;82.50;;;;;;5053300;28;20675;-73
2023/03/02 02:05:54;;;;;;;48.42;22.30;;;1.10;82.80;;;;;;5053351;28;20736;-72
2023/03/02 02:08:20;;;;;;;55.28;22.15;;;1.10;82.80;;;;;;5028900;28;20216;-73
2023/03/02 02:10:46;;;;;;;47.27;20.30;;;1.00;82.80;;;;;;5053198;28;20220;-72
2023/03/02 02:13:12;;;;;;;51.20;21.80;;;1.00;83.00;;;;;;5049767;28;20841;-73
2023/03/02 02:15:39;;;;;;;52.13;21.30;;;1.00;83.10;;;;;;5051836;28;20430;-72
2023/03/02 02:18:05;;;;;;;60.60;24.35;;;1.00;83.10;;;;;;5052975;28;20215;-73
2023/03/02 02:20:41;;;;;;;43.93;21.73;;;1.00;83.30;;;;;;5052248;28;20215;-73
2023/03/02 02:23:26;;;;;;;46.63;20.17;;;1.00;83.10;;;;;;5053781;28;20422;-73
2023/03/02 02:25:51;;;;;;;45.20;22.08;;;1.10;83.10;;;;;;5049245;28;20176;-73
2023/03/02 02:28:42;;;;;;;50.63;22.50;;;1.00;83.10;;;;;;5052853;28;20722;-71
2023/03/02 02:31:19;;;;;;;55.50;23.23;;;1.00;83.10;;;;;;5054995;28;20917;-73
2023/03/02 02:33:49;;;;;;;47.25;21.40;;;1.00;83.30;;;;;;5054231;28;20191;-73
2023/03/02 02:36:20;;;;;;;44.40;20.73;;;0.90;83.40;;;;;;5050426;28;20197;-73
2023/03/02 02:38:48;;;;;;;36.47;19.42;;;1.00;83.60;;;;;;5048902;28;20884;-72
2023/03/02 02:41:21;;;;;;;46.25;21.48;;;1.00;83.40;;;;;;5047518;28;20188;-73
2023/03/02 02:43:48;;;;;;;48.15;21.40;;;0.90;83.40;;;;;;5050212;28;20180;-73
2023/03/02 02:46:14;;;;;;;47.08;21.58;;;0.90;83.40;;;;;;5047683;28;20723;-73
2023/03/02 02:48:40;;;;;;;53.20;21.87;;;0.90;83.70;;;;;;5035586;28;20188;-73
2023/03/02 02:51:08;;;;;;;50.40;22.57;;;0.90;83.70;;;;;;5034922;28;20195;-73
2023/03/02 02:53:46;;;;;;;45.95;22.38;;;0.80;83.70;;;;;;5052634;28;20426;-72
2023/03/02 02:56:13;;;;;;;56.70;22.95;;;0.80;83.80;;;;;;5031436;28;20227;-74
2023/03/02 02:58:49;;;;;;;47.35;22.20;;;0.80;83.80;;;;;;5049962;28;20209;-73
2023/03/02 03:01:17;;;;;;;44.63;21.77;;;0.80;84.00;;;;;;5051434;28;20209;-72
2023/03/02 03:03:52;;;;;;;55.00;23.73;;;0.80;83.80;;;;;;5053201;28;20172;-72
2023/03/02 03:06:24;;;;;;;46.85;23.45;;;0.80;84.00;;;;;;5051803;28;20196;-73
2023/03/02 03:08:54;;;;;;;56.05;23.45;;;0.70;84.00;;;;;;5053923;28;20223;-72
2023/03/02 03:11:23;;;;;;;48.53;22.55;;;0.70;84.30;;;;;;5048748;28;20185;-72
2023/03/02 03:14:07;;;;;;;46.97;22.38;;;0.70;84.30;;;;;;5035588;28;20283;-74
2023/03/02 03:16:34;;;;;;;53.03;24.08;;;0.80;84.30;;;;;;5045148;28;20201;-73
2023/03/02 03:19:25;;;;;;;55.63;23.75;;;0.70;84.30;;;;;;5052782;28;20697;-73
2023/03/02 03:21:53;;;;;;;51.88;22.17;;;0.70;84.40;;;;;;5020450;28;20274;-73
2023/03/02 03:24:20;;;;;;;56.92;21.50;;;0.70;84.60;;;;;;5048766;28;20181;-73
2023/03/02 03:26:46;;;;;;;55.10;23.38;;;0.80;84.40;;;;;;5049508;28;20219;-73
2023/03/02 03:29:13;;;;;;;60.75;23.02;;;0.70;84.10;;;;;;5043732;28;20196;-73
2023/03/02 03:31:39;;;;;;;51.40;22.15;;;0.70;84.30;;;;;;5049177;28;20185;-73
2023/03/02 03:34:05;;;;;;;53.60;23.00;;;0.70;84.40;;;;;;5055888;28;20241;-73
2023/03/02 03:36:31;;;;;;;50.10;22.57;;;0.60;84.40;;;;;;5052007;28;20530;-73
2023/03/02 03:38:57;;;;;;;52.38;22.30;;;0.70;84.60;;;;;;5053623;28;20216;-73
2023/03/02 03:41:24;;;;;;;48.83;22.80;;;0.60;84.40;;;;;;5052942;28;20181;-72
2023/03/02 03:43:50;;;;;;;51.05;22.65;;;0.60;84.70;;;;;;5053164;28;20184;-72
2023/03/02 03:46:16;;;;;;;53.03;22.20;;;0.60;84.90;;;;;;5052982;28;20227;-74
2023/03/02 03:48:42;;;;;;;55.53;23.58;;;0.60;84.70;;;;;;5052519;28;20419;-72
2023/03/02 03:51:08;;;;;;;62.17;25.17;;;0.60;84.70;;;;;;5035644;28;20191;-73
2023/03/02 03:53:34;;;;;;;54.05;23.38;;;0.60;84.90;;;;;;5034493;28;20423;-73
2023/03/02 03:56:02;;;;;;;52.50;23.50;;;0.50;85.00;;;;;;5054177;28;20211;-73
2023/03/02 03:58:28;;;;;;;49.10;20.17;;;0.50;85.20;;;;;;5050567;28;20962;-72
2023/03/02 04:00:54;;;;;;;51.92;22.98;;;0.60;85.30;;;;;;5049887;28;20606;-72
2023/03/02 04:03:20;;;;;;;52.00;22.23;;;0.60;85.20;;;;;;5052702;28;20192;-72
2023/03/02 04:05:46;;;;;;;56.30;23.00;;;0.60;85.20;;;;;;5032035;28;20184;-73
2023/03/02 04:08:12;;;;;;;59.95;24.30;;;0.60;85.20;;;;;;5053696;28;20184;-73
2023/03/02 04:10:38;;;;;;;49.37;23.60;;;0.50;85.20;;;;;;5054213;28;20189;-73
2023/03/02 04:13:04;;;;;;;50.58;22.88;;;0.50;85.30;;;;;;5035313;28;20194;-73
2023/03/02 04:15:30;;;;;;;52.03;24.03;;;0.50;85.50;;;;;;5055704;28;20553;-73
2023/03/02 04:17:56;;;;;;;52.90;23.77;;;0.50;85.30;;;;;;5054820;28;20457;-73
2023/03/02 04:20:23;;;;;;;60.27;24.77;;;0.50;85.50;;;;;;5055086;28;20804;-74
2023/03/02 04:22:51;;;;;;;49.95;22.60;;;0.50;85.50;;;;;;5054415;28;20180;-72
2023/03/02 04:25:20;;;;;;;51.15;24.25;;;0.60;85.50;;;;;;5053397;28;20192;-73
2023/03/02 04:27:47;;;;;;;59.50;23.48;;;0.60;85.30;;;;;;5053142;28;20981;-73
2023/03/02 04:30:14;;;;;;;57.42;23.85;;;0.50;85.30;;;;;;5052447;28;20259;-73
2023/03/02 04:32:40;;;;;;;56.15;23.73;;;0.50;85.30;;;;;;5052523;28;20578;-73
2023/03/02 04:35:06;;;;;;;46.83;21.87;;;0.50;85.30;;;;;;5035110;28;20192;-73
2023/03/02 04:37:31;;;;;;;50.72;22.95;;;0.50;85.50;;;;;;5051296;28;20208;-74
2023/03/02 04:39:57;;;;;;;54.20;24.13;;;0.50;85.50;;;;;;5053389;28;20584;-74
2023/03/02 04:42:23;;;;;;;50.20;23.53;;;0.50;85.30;;;;;;5052465;28;20208;-73
2023/03/02 04:44:48;;;;;;;55.30;23.70;;;0.50;85.50;;;;;;5035476;28;20184;-73
2023/03/02 04:47:14;;;;;;;62.87;23.43;;;0.50;85.30;;;;;;5042615;28;20216;-72
2023/03/02 04:49:40;;;;;;;55.70;23.47;;;0.40;85.30;;;;;;5053031;28;20287;-73
2023/03/02 04:52:06;;;;;;;64.00;24.83;;;0.40;85.60;;;;;;5054934;28;20438;-72
2023/03/02 04:54:32;;;;;;;56.90;24.13;;;0.50;86.00;;;;;;5053247;28;20195;-72
2023/03/02 04:56:57;;;;;;;51.77;23.47;;;0.50;86.00;;;;;;5048156;28;20467;-73
2023/03/02 04:59:27;;;;;;;48.17;22.80;;;0.50;85.70;;;;;;5030682;28;20462;-74
2023/03/02 05:01:58;;;;;;;50.53;21.45;;;0.60;85.70;;;;;;5031238;28;20559;-73
2023/03/02 05:04:24;;;;;;;57.03;24.13;;;0.60;85.60;;;;;;5048297;28;20566;-72
2023/03/02 05:06:49;;;;;;;60.05;24.83;;;0.70;85.50;;;;;;5052124;28;20215;-73
2023/03/02 05:09:15;;;;;;;51.00;22.87;;;0.70;85.50;;;;;;5046130;28;20185;-73
2023/03/02 05:11:41;;;;;;;59.80;23.83;;;0.80;85.30;;;;;;5052105;28;20559;-73
2023/03/02 05:14:09;;;;;;;45.03;22.00;;;0.80;85.00;;;;;;5051713;28;20209;-74
2023/03/02 05:16:37;;;;;;;57.58;22.85;;;0.80;84.70;;;;;;5032115;28;20262;-74
2023/03/02 05:19:05;;;;;;;58.67;23.80;;;0.90;85.00;;;;;;5052194;28;20200;-73
2023/03/02 05:21:31;;;;;;;51.03;23.92;;;0.90;84.40;;;;;;5048252;28;20180;-73
2023/03/02 05:23:57;;;;;;;50.10;23.77;;;1.00;84.30;;;;;;5044350;28;20181;-73
2023/03/02 05:26:22;;;;;;;59.20;22.50;;;1.00;84.30;;;;;;5036419;28;20192;-72
2023/03/02 05:28:48;;;;;;;52.10;22.53;;;1.10;84.30;;;;;;5033469;28;20192;-73
2023/03/02 05:31:23;;;;;;;54.43;25.10;;;1.10;84.10;;;;;;5047420;28;20276;-73
2023/03/02 05:33:48;;;;;;;50.13;22.48;;;1.30;83.80;;;;;;5050631;28;20194;-73
2023/03/02 05:36:14;;;;;;;55.77;24.63;;;1.40;83.10;;;;;;5052346;28;20913;-73
2023/03/02 05:38:40;;;;;;;52.45;22.75;;;1.40;82.70;;;;;;5054531;28;20283;-73
2023/03/02 05:41:05;;;;;;;50.43;21.73;;;1.50;82.40;;;;;;5052315;28;20612;-74
2023/03/02 05:43:31;;;;;;;53.97;23.70;;;1.50;82.20;;;;;;5054553;28;20251;-72
2023/03/02 05:45:59;;;;;;;49.87;21.80;;;1.50;82.10;;;;;;5054553;28;20210;-73
2023/03/02 05:48:27;;;;;;;47.45;21.25;;;1.60;82.10;;;;;;5053610;28;20934;-73
2023/03/02 05:50:52;;;;;;;51.65;22.63;;;1.70;81.70;;;;;;5050797;28;20238;-73
2023/03/02 05:53:18;;;;;;;50.90;21.60;;;1.80;81.20;;;;;;5037568;28;20196;-72
2023/03/02 05:55:43;;;;;;;53.63;23.03;;;1.90;80.50;;;;;;5048686;28;20267;-72
2023/03/02 05:58:13;;;;;;;56.20;22.93;;;1.90;80.20;;;;;;5055021;28;20223;-71
2023/03/02 06:00:39;;;;;;;51.20;23.50;;;1.90;79.90;;;;;;5055438;28;20736;-71
2023/03/02 06:03:05;;;;;;;54.28;21.67;;;2.00;79.60;;;;;;5052422;28;20230;-72
2023/03/02 06:05:30;;;;;;;51.57;21.97;;;2.00;79.50;;;;;;5053976;28;20177;-74
2023/03/02 06:07:56;;;;;;;53.60;22.57;;;2.10;79.30;;;;;;5045760;28;20286;-72
2023/03/02 06:10:22;;;;;;;54.43;22.77;;;2.10;79.20;;;;;;5036992;28;20185;-72
2023/03/02 06:12:47;;;;;;;52.53;22.53;;;2.00;79.20;;;;;;5055410;28;20621;-73
2023/03/02 06:15:13;;;;;;;51.80;22.70;;;2.10;79.30;;;;;;5056193;28;20189;-73
2023/03/02 06:17:38;;;;;;;48.63;22.97;;;2.00;79.30;;;;;;5035405;28;20212;-73
2023/03/02 06:20:09;;;;;;;57.17;23.17;;;2.10;79.20;;;;;;5037627;28;20743;-74
2023/03/02 06:22:45;;;;;;;55.47;23.63;;;2.10;79.20;;;;;;5031053;28;20199;-73
2023/03/02 06:25:14;;;;;;;43.08;19.98;;;2.20;79.20;;;;;;5055017;28;20235;-72
2023/03/02 06:27:41;;;;;;;50.47;22.25;;;2.20;78.60;;;;;;5052744;28;20208;-72
2023/03/02 06:30:09;;;;;;;56.45;23.17;;;2.20;78.40;;;;;;5054549;28;20223;-74
2023/03/02 06:32:35;;;;;;;55.22;21.98;;;2.10;78.40;;;;;;5032082;28;20333;-73
2023/03/02 06:35:02;;;;;;;51.80;21.80;;;2.10;78.90;;;;;;5055998;28;20214;-74
2023/03/02 06:37:29;;;;;;;49.45;21.65;;;2.10;78.90;;;;;;5051017;28;20208;-72
2023/03/02 06:39:55;;;;;;;51.58;22.55;;;2.00;79.00;;;;;;5054565;28;20216;-72
2023/03/02 06:42:22;;;;;;;56.50;22.53;;;2.00;79.20;;;;;;5054800;28;20188;-72
2023/03/02 06:44:48;;;;;;;56.77;23.60;;;2.00;79.20;;;;;;5033304;28;20515;-74
2023/03/02 06:47:14;;;;;;;53.10;23.13;;;2.00;79.30;;;;;;5040305;28;20543;-74
2023/03/02 06:49:39;;;;;;;52.00;22.40;;;2.10;79.30;;;;;;5051732;28;20192;-74
2023/03/02 06:52:06;;;;;;;50.73;22.07;;;2.10;79.20;;;;;;5054233;28;20249;-75
2023/03/02 06:54:32;;;;;;;51.92;21.30;;;2.10;79.00;;;;;;5052093;28;20226;-76
2023/03/02 06:56:58;;;;;;;55.17;22.77;;;2.10;79.30;;;;;;5032343;28;20679;-74
2023/03/02 06:59:23;;;;;;;53.33;22.50;;;2.20;79.30;;;;;;5052088;28;20557;-74
2023/03/02 07:01:50;;;;;;;49.27;21.03;;;2.30;79.20;;;;;;5052405;28;20201;-72
2023/03/02 07:04:16;;;;;;;50.90;22.17;;;2.30;78.90;;;;;;5035355;28;20184;-73
2023/03/02 07:06:42;;;;;;;51.23;21.43;;;2.30;78.70;;;;;;5052226;28;20454;-75
2023/03/02 07:09:07;;;;;;;54.73;23.53;;;2.30;78.60;;;;;;5034048;28;20739;-72
2023/03/02 07:11:33;;;;;;;50.33;22.13;;;2.30;78.40;;;;;;5054031;28;20438;-73
2023/03/02 07:14:00;;;;;;;50.43;21.10;;;2.30;78.60;;;;;;5048896;28;20484;-74
2023/03/02 07:16:26;;;;;;;57.87;22.30;;;2.40;78.60;;;;;;5052268;28;20465;-74
2023/03/02 07:18:51;;;;;;;49.00;22.30;;;2.50;78.40;;;;;;5056158;28;20466;-73
2023/03/02 07:21:17;;;;;;;50.73;21.10;;;2.40;78.10;;;;;;5054312;28;20423;-75
2023/03/02 07:23:42;;;;;;;49.97;21.50;;;2.40;78.30;;;;;;5056191;28;20219;-76
2023/03/02 07:26:08;;;;;;;54.23;23.90;;;2.50;78.40;;;;;;5046715;28;20200;-75
2023/03/02 07:28:38;;;;;;;54.27;22.07;;;2.50;78.00;;;;;;5040221;28;20185;-73
2023/03/02 07:31:04;;;;;;;47.40;20.63;;;2.50;78.00;;;;;;5062280;28;20207;-73
2023/03/02 07:33:31;;;;;;;51.38;21.85;;;2.50;78.00;;;;;;5066247;28;20423;-74
2023/03/02 07:35:56;;;;;;;57.13;22.98;;;2.50;77.80;;;;;;5059962;28;20188;-73
2023/03/02 07:38:22;;;;;;;47.90;20.20;;;2.60;78.10;;;;;;5055947;28;20644;-74
2023/03/02 07:40:48;;;;;;;53.77;22.53;;;2.70;78.10;;;;;;5052407;28;20283;-75
2023/03/02 07:43:14;;;;;;;47.63;21.35;;;2.80;77.70;;;;;;5058502;28;20181;-75
2023/03/02 07:45:39;;;;;;;45.63;21.20;;;2.60;77.10;;;;;;5057273;28;20180;-75
2023/03/02 07:48:05;;;;;;;52.50;21.67;;;2.60;77.40;;;;;;5056209;28;20419;-75
2023/03/02 07:50:32;;;;;;;52.97;21.23;;;2.60;77.80;;;;;;5027985;28;20176;-72
2023/03/02 07:52:57;;;;;;;53.40;21.50;;;2.60;77.70;;;;;;5052132;28;20533;-74
2023/03/02 07:55:23;;;;;;;57.90;22.37;;;2.70;77.80;;;;;;5043029;28;20454;-72
2023/03/02 07:57:49;;;;;;;43.80;20.53;;;2.70;77.60;;;;;;5057389;28;20228;-73
2023/03/02 08:00:15;;;;;;;49.07;20.37;;;2.80;77.40;;;;;;5058076;28;20295;-71
2023/03/02 08:02:41;;;;;;;45.80;21.03;;;2.90;77.30;;;;;;5058995;28;20184;-73
2023/03/02 08:05:07;;;;;;;46.10;20.27;;;2.90;77.30;;;;;;5057518;28;20508;-74
2023/03/02 08:07:33;;;;;;;49.40;20.87;;;3.00;77.00;;;;;;5056316;28;20466;-74
2023/03/02 08:09:59;;;;;;;57.33;21.47;;;3.00;76.40;;;;;;5053643;28;20428;-74
2023/03/02 08:12:26;;;;;;;56.90;21.70;;;3.00;76.40;;;;;;5055336;28;20273;-73
2023/03/02 08:14:51;;;;;;;48.23;20.50;;;3.00;76.40;;;;;;5051572;28;20474;-72
2023/03/02 08:17:17;;;;;;;42.50;17.70;;;3.00;76.70;;;;;;5044792;28;20468;-73
2023/03/02 08:19:43;;;;;;;48.13;21.47;;;3.10;76.70;;;;;;5045488;28;20299;-72
2023/03/02 08:22:09;;;;;;;43.33;20.00;;;3.10;76.20;;;;;;5042366;28;20547;-74
2023/03/02 08:24:35;;;;;;;47.57;21.17;;;3.10;76.40;;;;;;5048020;28;20238;-74
2023/03/02 08:27:02;;;;;;;49.85;20.77;;;3.10;76.40;;;;;;5050281;28;20459;-72
2023/03/02 08:29:28;;;;;;;55.97;20.50;;;3.20;76.50;;;;;;5052607;28;20184;-71
2023/03/02 08:31:53;;;;;;;47.80;20.60;;;3.20;76.10;;;;;;5053154;28;20428;-73
2023/03/02 08:34:19;;;;;;;47.07;20.13;;;3.20;76.10;;;;;;5053101;28;20461;-73
2023/03/02 08:36:45;;;;;;;45.47;19.63;;;3.20;76.10;;;;;;5047657;28;20212;-74
2023/03/02 08:39:11;;;;;;;37.40;18.33;;;3.30;75.90;;;;;;5033092;28;20468;-72
2023/03/02 08:41:36;;;;;;;50.73;21.70;;;3.40;76.10;;;;;;5051021;28;20192;-72
2023/03/02 08:44:02;;;;;;;48.47;20.80;;;3.60;75.80;;;;;;5051010;28;20176;-74
2023/03/02 08:46:29;;;;;;;43.77;19.30;;;3.70;75.40;;;;;;5044344;28;20246;-73
2023/03/02 08:48:55;;;;;;;47.10;20.33;;;3.90;74.80;;;;;;5051100;28;20887;-72
2023/03/02 08:51:23;;;;;;;40.40;19.57;;;4.10;74.20;;;;;;5048500;28;20433;-75
2023/03/02 08:53:50;;;;;;;37.40;17.63;;;4.30;74.00;;;;;;5033426;28;20188;-74
2023/03/02 08:56:18;;;;;;;39.30;19.20;;;4.50;73.70;;;;;;5044395;28;20478;-72
2023/03/02 08:58:43;;;;;;;42.67;18.37;;;4.60;72.60;;;;;;5051566;28;20494;-72
2023/03/02 09:01:17;;;;;;;42.90;20.40;;;4.60;72.40;;;;;;5054692;28;20855;-73
2023/03/02 09:03:44;;;;;;;41.33;19.00;;;4.70;72.40;;;;;;5054080;28;20881;-73
2023/03/02 09:06:09;;;;;;;44.27;19.03;;;4.70;72.30;;;;;;5051740;28;20462;-74
2023/03/02 09:08:35;;;;;;;43.90;18.80;;;4.80;72.60;;;;;;5032245;28;20526;-74
2023/03/02 09:11:00;;;;;;;47.93;20.60;;;5.00;72.00;;;;;;5053331;28;20206;-74
2023/03/02 09:13:26;;;;;;;42.97;18.70;;;5.10;71.60;;;;;;5057045;28;20418;-73
2023/03/02 09:15:52;;;;;;;45.80;19.80;;;5.10;71.60;;;;;;5053461;28;20188;-72
2023/03/02 09:18:17;;;;;;;39.13;18.50;;;5.00;71.60;;;;;;5055485;28;20697;-74
2023/03/02 09:20:43;;;;;;;43.77;19.30;;;4.90;72.00;;;;;;5035258;28;20219;-72
2023/03/02 09:23:09;;;;;;;47.17;19.13;;;4.90;72.00;;;;;;5053965;28;20727;-74
2023/03/02 09:25:35;;;;;;;47.30;20.07;;;4.80;72.10;;;;;;5056649;28;20189;-73
2023/03/02 09:28:01;;;;;;;42.03;20.10;;;4.90;72.40;;;;;;5052556;28;20466;-72
2023/03/02 09:30:26;;;;;;;49.87;19.80;;;4.60;72.30;;;;;;5054151;28;20184;-74
2023/03/02 09:32:52;;;;;;;45.97;19.70;;;4.40;73.20;;;;;;5057145;28;20191;-75
2023/03/02 09:35:17;;;;;;;47.53;19.37;;;4.50;73.50;;;;;;5054178;28;20469;-73
2023/03/02 09:37:43;;;;;;;42.33;18.57;;;4.60;73.50;;;;;;5034528;28;20212;-75
2023/03/02 09:40:19;;;;;;;37.00;17.33;;;4.70;73.30;;;;;;5050149;28;20243;-74
2023/03/02 09:42:58;;;;;;;40.27;18.17;;;4.80;73.30;;;;;;5036083;28;20200;-74
2023/03/02 09:45:37;;;;;;;45.67;18.07;;;4.80;73.00;;;;;;5055454;28;20836;-73
2023/03/02 09:48:09;;;;;;;38.83;18.60;;;4.80;73.00;;;;;;5049282;28;20546;-73
2023/03/02 09:50:38;;;;;;;38.37;17.07;;;5.00;72.90;;;;;;5049677;28;20441;-74
2023/03/02 09:53:29;;;;;;;34.63;17.10;;;5.10;72.70;;;;;;5052051;28;20428;-75
2023/03/02 09:56:01;;;;;;;43.23;19.30;;;5.40;72.60;;;;;;5025434;28;20427;-76
2023/03/02 09:58:37;;;;;;;40.53;18.73;;;5.60;71.70;;;;;;5053474;28;20430;-75
2023/03/02 10:01:10;;;;;;;37.33;18.37;;;5.80;71.30;;;;;;5047269;28;20419;-76
2023/03/02 10:03:46;;;;;;;38.80;18.23;;;5.90;70.80;;;;;;5028547;28;20435;-74
2023/03/02 10:06:12;;;;;;;37.53;17.10;;;6.10;70.50;;;;;;5051500;28;20497;-76
2023/03/02 10:08:39;;;;;;;35.57;18.10;;;6.10;70.20;;;;;;5058939;28;20431;-74
2023/03/02 10:11:15;;;;;;;34.70;17.37;;;6.10;70.40;;;;;;5053382;28;20184;-75
2023/03/02 10:13:57;;;;;;;43.07;20.23;;;6.20;70.50;;;;;;5034870;28;20423;-74
2023/03/02 10:16:45;;;;;;;43.67;19.30;;;6.40;70.70;;;;;;5046807;28;20801;-75
2023/03/02 10:19:20;;;;;;;41.40;18.00;;;6.50;69.40;;;;;;5049383;28;20862;-75
2023/03/02 10:21:52;;;;;;;41.13;18.20;;;6.60;69.40;;;;;;5053318;28;20469;-76
2023/03/02 10:24:39;;;;;;;38.50;19.80;;;6.60;69.40;;;;;;5049661;28;20418;-74
2023/03/02 10:27:20;;;;;;;45.40;19.60;;;6.70;69.70;;;;;;5048954;28;20458;-75
2023/03/02 10:29:54;;;;;;;39.10;17.77;;;6.70;69.70;;;;;;5050020;28;20827;-75
2023/03/02 10:32:28;;;;;;;33.60;18.33;;;6.70;69.20;;;;;;5053503;28;20434;-74
2023/03/02 10:34:53;;;;;;;40.70;17.50;;;6.70;69.20;;;;;;5053723;28;20431;-74
2023/03/02 10:37:27;;;;;;;39.23;17.77;;;6.40;69.80;;;;;;5050467;28;20831;-75
2023/03/02 10:39:53;;;;;;;43.00;19.63;;;6.40;70.10;;;;;;5049484;28;20208;-75
2023/03/02 10:42:21;;;;;;;44.17;19.20;;;6.50;70.20;;;;;;5056274;28;20438;-76
2023/03/02 10:44:54;;;;;;;33.47;16.60;;;6.50;70.10;;;;;;5054331;28;20426;-74
2023/03/02 10:47:28;;;;;;;44.07;20.00;;;6.60;70.20;;;;;;5053803;28;20458;-75
2023/03/02 10:49:55;;;;;;;42.70;18.00;;;6.70;70.20;;;;;;5052285;28;20942;-75
2023/03/02 10:52:26;;;;;;;33.67;17.20;;;6.90;69.90;;;;;;5056334;28;20457;-75
2023/03/02 10:55:04;;;;;;;39.27;18.63;;;7.10;69.40;;;;;;5047798;28;20427;-75
2023/03/02 10:57:40;;;;;;;37.93;17.97;;;7.20;68.50;;;;;;5052236;28;20458;-75
2023/03/02 11:00:24;;;;;;;47.97;19.63;;;7.50;68.20;;;;;;5051595;28;20477;-74
2023/03/02 11:02:52;;;;;;;34.50;16.90;;;7.70;67.60;;;;;;5054440;28;20491;-74
2023/03/02 11:05:32;;;;;;;35.30;17.93;;;7.90;67.50;;;;;;5054749;28;20496;-76
2023/03/02 11:08:07;;;;;;;33.50;17.90;;;8.40;65.80;;;;;;5051473;28;20451;-75
2023/03/02 11:10:36;;;;;;;42.20;20.10;;;8.60;64.50;;;;;;5045761;28;20487;-74
2023/03/02 11:13:15;;;;;;;40.47;19.10;;;8.70;64.40;;;;;;5054451;28;20509;-75
2023/03/02 11:15:47;;;;;;;33.47;17.30;;;9.10;63.20;;;;;;5044982;28;20422;-73
2023/03/02 11:18:37;;;;;;;40.80;18.67;;;9.20;62.20;;;;;;5049149;28;20449;-74
2023/03/02 11:21:10;;;;;;;35.63;18.47;;;9.10;62.30;;;;;;5047708;28;20427;-74
2023/03/02 11:23:59;;;;;;;36.90;17.30;;;8.80;63.20;;;;;;5053095;28;20421;-74
2023/03/02 11:26:34;;;;;;;40.90;18.17;;;9.00;63.40;;;;;;5028972;28;20538;-75
2023/03/02 11:29:21;;;;;;;34.90;17.80;;;9.30;63.10;;;;;;5048966;28;20414;-73
2023/03/02 11:31:55;;;;;;;33.20;18.30;;;9.70;62.20;;;;;;5053027;28;20518;-76
2023/03/02 11:34:20;;;;;;;43.33;19.40;;;10.20;60.40;;;;;;5038378;28;20576;-74
2023/03/02 11:37:16;;;;;;;40.90;19.43;;;10.50;58.70;;;;;;5051121;28;20497;-74
2023/03/02 11:39:48;;;;;;;38.20;18.70;;;10.40;58.90;;;;;;5043709;28;20270;-75
2023/03/02 11:42:34;;;;;;;34.47;16.63;;;10.70;58.50;;;;;;5051745;28;20460;-76
2023/03/02 11:45:07;;;;;;;34.83;17.70;;;10.80;57.80;;;;;;5052836;28;20547;-74
2023/03/02 11:47:35;;;;;;;33.00;17.33;;;11.20;57.80;;;;;;5041723;28;20453;-74
2023/03/02 11:50:04;;;;;;;43.67;20.00;;;11.50;56.40;;;;;;5052926;28;20937;-74
2023/03/02 11:52:36;;;;;;;36.70;19.00;;;11.70;55.40;;;;;;5053176;28;20422;-74
2023/03/02 11:55:13;;;;;;;37.57;17.43;;;11.70;54.60;;;;;;5051894;28;20850;-75
2023/03/02 11:57:47;;;;;;;35.70;18.13;;;11.50;55.00;;;;;;5049536;28;20454;-74
2023/03/02 12:00:37;;;;;;;39.37;17.77;;;11.10;56.10;;;;;;5051262;28;20557;-75
2023/03/02 12:03:07;;;;;;;32.77;18.00;;;11.10;56.40;;;;;;5052449;28;20506;-73
2023/03/02 12:05:35;;;;;;;40.57;19.97;;;10.90;57.40;;;;;;5032358;28;20419;-74
2023/03/02 12:08:07;;;;;;;39.57;19.43;;;10.90;56.80;;;;;;5046453;28;20462;-75
2023/03/02 12:10:42;;;;;;;39.23;18.40;;;10.80;57.00;;;;;;5047481;28;20505;-74
2023/03/02 12:13:22;;;;;;;40.23;18.17;;;10.80;57.70;;;;;;5047122;28;20432;-72
2023/03/02 12:15:49;;;;;;;37.73;18.83;;;11.00;57.40;;;;;;5046410;28;20424;-75
2023/03/02 12:18:21;;;;;;;41.20;18.50;;;11.40;56.90;;;;;;5047637;28;20446;-74
2023/03/02 12:21:03;;;;;;;44.70;18.00;;;11.40;55.60;;;;;;5048988;28;20470;-75
2023/03/02 12:23:31;;;;;;;35.43;17.23;;;11.30;56.20;;;;;;5049728;28;20422;-73
2023/03/02 12:26:06;;;;;;;31.20;18.10;;;11.60;56.20;;;;;;5039673;28;20416;-76
2023/03/02 12:28:37;;;;;;;33.47;16.93;;;11.90;54.90;;;;;;5046104;28;20423;-75
2023/03/02 12:31:07;;;;;;;41.37;18.97;;;12.00;54.60;;;;;;5033647;28;20427;-75
2023/03/02 12:33:45;;;;;;;37.93;17.87;;;12.20;54.20;;;;;;5048107;28;20865;-75
2023/03/02 12:36:18;;;;;;;35.90;18.57;;;12.20;53.70;;;;;;5044146;28;20504;-75
2023/03/02 12:38:58;;;;;;;35.50;18.13;;;11.80;54.50;;;;;;5049848;28;21125;-75
2023/03/02 12:41:49;;;;;;;33.17;17.40;;;11.60;55.30;;;;;;5051458;28;20433;-75
2023/03/02 12:44:39;;;;;;;33.20;16.60;;;11.20;56.20;;;;;;5047165;28;21015;-74
2023/03/02 12:47:16;;;;;;;33.33;17.13;;;11.00;57.40;;;;;;5047054;28;20463;-75
2023/03/02 12:49:49;;;;;;;32.20;16.67;;;10.80;57.80;;;;;;5051100;28;20925;-72